DZI weather

Codazzi Airport
Hacienda Borrero, César Department, Colombia

Public forecast

Using degrees Celsius for public forecast. Weather courtesy of forecast.io.

Closest aviation weather report (METAR) to Codazzi Airport

Report is more than 6 hours old.

Closest report is Alfonso López Pumarejo Airport, 51.5 nm (95.4 km) NNE. Retrieved 2019/10/22 03:00 UTC (7 hours ago):

SKVP 220300Z 02006KT 9999 FEW015 24/23 A2996

Closest aviation forecast (TAF) to Codazzi Airport

Forecast is more than 12 hours old.

Closest forecast is Villa del Rosario Airport, 80.5 nm (149.0 km) ENE. Retrieved 2019/09/09 18:00 UTC (1 month ago):

TAF SVVS 091700Z 0918/1018 18004KT 9999 BKN016 TX30/0919Z TN22/1008Z TEMPO 0919/0921 9000 DZ TEMPO 0922/1002 24005KT 9999 SCT016 SCT150